Terminal Aerodrome Forecast
Issued by NWS Grand Forks, ND

Home | Current Version | Previous Version | Graphics & Text | Print | Product List | Glossary On
Versions: 1 2 3 4 5 6 7 8 9 10 11 12 13 14 15 16 17 18 19 20
737
FTUS43 KFGF 191721 AAB
TAFFAR
TAF AMD
KFAR 191721Z 1917/2018 18012KT P6SM SCT035
     FM200200 17008KT P6SM BKN025
     FM200600 16006KT 6SM -FZDZ BR BKN008
     FM201000 16006KT 4SM -FZDZ BR BKN003
     FM201200 14006KT P6SM OVC003=

USA.gov is the U.S. government's official web portal to all federal, state and local government web resources and services.